sensor_id;sensor_type;location;lat;lon;timestamp;temperature;humidity
25945;SHT31;13742;49.306;8.636;2023-02-28T00:00:24;0.98;59.42
25945;SHT31;13742;49.306;8.636;2023-02-28T00:01:23;0.99;59.43
25945;SHT31;13742;49.306;8.636;2023-02-28T00:02:23;1.02;59.26
25945;SHT31;13742;49.306;8.636;2023-02-28T00:03:23;1.00;59.39
25945;SHT31;13742;49.306;8.636;2023-02-28T00:04:24;0.99;59.24
25945;SHT31;13742;49.306;8.636;2023-02-28T00:05:25;1.00;59.32
25945;SHT31;13742;49.306;8.636;2023-02-28T00:06:24;1.02;59.75
25945;SHT31;13742;49.306;8.636;2023-02-28T00:07:23;1.03;59.66
25945;SHT31;13742;49.306;8.636;2023-02-28T00:08:23;1.03;59.61
25945;SHT31;13742;49.306;8.636;2023-02-28T00:09:23;0.96;59.76
25945;SHT31;13742;49.306;8.636;2023-02-28T00:10:27;0.96;59.63
25945;SHT31;13742;49.306;8.636;2023-02-28T00:11:23;0.95;59.61
25945;SHT31;13742;49.306;8.636;2023-02-28T00:12:24;0.93;59.66
25945;SHT31;13742;49.306;8.636;2023-02-28T00:13:23;0.93;59.59
25945;SHT31;13742;49.306;8.636;2023-02-28T00:14:23;0.96;59.81
25945;SHT31;13742;49.306;8.636;2023-02-28T00:15:24;0.92;59.91
25945;SHT31;13742;49.306;8.636;2023-02-28T00:16:23;0.92;59.79
25945;SHT31;13742;49.306;8.636;2023-02-28T00:17:23;0.86;59.95
25945;SHT31;13742;49.306;8.636;2023-02-28T00:18:24;0.91;60.02
25945;SHT31;13742;49.306;8.636;2023-02-28T00:19:23;0.89;59.97
25945;SHT31;13742;49.306;8.636;2023-02-28T00:20:24;0.92;60.17
25945;SHT31;13742;49.306;8.636;2023-02-28T00:21:24;0.93;60.13
25945;SHT31;13742;49.306;8.636;2023-02-28T00:22:23;0.96;60.04
25945;SHT31;13742;49.306;8.636;2023-02-28T00:23:24;0.95;59.97
25945;SHT31;13742;49.306;8.636;2023-02-28T00:24:23;0.91;60.11
25945;SHT31;13742;49.306;8.636;2023-02-28T00:25:25;0.89;60.05
25945;SHT31;13742;49.306;8.636;2023-02-28T00:26:24;0.89;60.03
25945;SHT31;13742;49.306;8.636;2023-02-28T00:27:23;0.88;59.99
25945;SHT31;13742;49.306;8.636;2023-02-28T00:28:24;0.86;60.18
25945;SHT31;13742;49.306;8.636;2023-02-28T00:29:23;0.88;60.21
25945;SHT31;13742;49.306;8.636;2023-02-28T00:30:23;0.86;60.19
25945;SHT31;13742;49.306;8.636;2023-02-28T00:31:23;0.85;60.32
25945;SHT31;13742;49.306;8.636;2023-02-28T00:32:23;0.88;60.43
25945;SHT31;13742;49.306;8.636;2023-02-28T00:33:24;0.86;60.40
25945;SHT31;13742;49.306;8.636;2023-02-28T00:34:23;0.86;60.45
25945;SHT31;13742;49.306;8.636;2023-02-28T00:35:23;0.85;60.42
25945;SHT31;13742;49.306;8.636;2023-02-28T00:36:23;0.83;60.54
25945;SHT31;13742;49.306;8.636;2023-02-28T00:37:23;0.82;60.54
25945;SHT31;13742;49.306;8.636;2023-02-28T00:38:23;0.79;60.84
25945;SHT31;13742;49.306;8.636;2023-02-28T00:39:23;0.83;60.98
25945;SHT31;13742;49.306;8.636;2023-02-28T00:40:23;0.83;60.81
25945;SHT31;13742;49.306;8.636;2023-02-28T00:41:23;0.81;60.85
25945;SHT31;13742;49.306;8.636;2023-02-28T00:42:24;0.83;60.85
25945;SHT31;13742;49.306;8.636;2023-02-28T00:43:24;0.81;60.95
25945;SHT31;13742;49.306;8.636;2023-02-28T00:44:23;0.78;61.01
25945;SHT31;13742;49.306;8.636;2023-02-28T00:45:23;0.79;61.18
25945;SHT31;13742;49.306;8.636;2023-02-28T00:46:23;0.78;61.28
25945;SHT31;13742;49.306;8.636;2023-02-28T00:47:23;0.78;61.39
25945;SHT31;13742;49.306;8.636;2023-02-28T00:48:23;0.78;61.39
25945;SHT31;13742;49.306;8.636;2023-02-28T00:49:24;0.76;61.43
25945;SHT31;13742;49.306;8.636;2023-02-28T00:50:23;0.76;61.57
25945;SHT31;13742;49.306;8.636;2023-02-28T00:51:23;0.73;61.66
25945;SHT31;13742;49.306;8.636;2023-02-28T00:52:23;0.73;61.70
25945;SHT31;13742;49.306;8.636;2023-02-28T00:53:23;0.73;61.91
25945;SHT31;13742;49.306;8.636;2023-02-28T00:54:24;0.71;61.88
25945;SHT31;13742;49.306;8.636;2023-02-28T00:55:23;0.72;61.96
25945;SHT31;13742;49.306;8.636;2023-02-28T00:56:23;0.73;61.72
25945;SHT31;13742;49.306;8.636;2023-02-28T00:57:23;0.78;62.02
25945;SHT31;13742;49.306;8.636;2023-02-28T00:58:24;0.75;61.82
25945;SHT31;13742;49.306;8.636;2023-02-28T00:59:23;0.72;62.02
25945;SHT31;13742;49.306;8.636;2023-02-28T01:00:23;0.71;62.26
25945;SHT31;13742;49.306;8.636;2023-02-28T01:01:23;0.72;62.24
25945;SHT31;13742;49.306;8.636;2023-02-28T01:02:23;0.72;62.41
25945;SHT31;13742;49.306;8.636;2023-02-28T01:03:24;0.72;62.16
25945;SHT31;13742;49.306;8.636;2023-02-28T01:04:23;0.73;62.47
25945;SHT31;13742;49.306;8.636;2023-02-28T01:05:24;0.71;62.52
25945;SHT31;13742;49.306;8.636;2023-02-28T01:06:23;0.68;62.70
25945;SHT31;13742;49.306;8.636;2023-02-28T01:07:23;0.69;62.89
25945;SHT31;13742;49.306;8.636;2023-02-28T01:08:24;0.72;62.87
25945;SHT31;13742;49.306;8.636;2023-02-28T01:09:23;0.71;62.79
25945;SHT31;13742;49.306;8.636;2023-02-28T01:10:24;0.68;62.95
25945;SHT31;13742;49.306;8.636;2023-02-28T01:11:24;0.68;62.76
25945;SHT31;13742;49.306;8.636;2023-02-28T01:12:23;0.65;62.98
25945;SHT31;13742;49.306;8.636;2023-02-28T01:13:25;0.64;63.14
25945;SHT31;13742;49.306;8.636;2023-02-28T01:14:24;0.64;63.20
25945;SHT31;13742;49.306;8.636;2023-02-28T01:15:23;0.67;63.23
25945;SHT31;13742;49.306;8.636;2023-02-28T01:16:23;0.65;63.27
25945;SHT31;13742;49.306;8.636;2023-02-28T01:17:23;0.62;63.44
25945;SHT31;13742;49.306;8.636;2023-02-28T01:18:24;0.64;63.35
25945;SHT31;13742;49.306;8.636;2023-02-28T01:19:23;0.64;63.53
25945;SHT31;13742;49.306;8.636;2023-02-28T01:20:24;0.64;63.67
25945;SHT31;13742;49.306;8.636;2023-02-28T01:21:23;0.64;63.63
25945;SHT31;13742;49.306;8.636;2023-02-28T01:22:23;0.64;63.59
25945;SHT31;13742;49.306;8.636;2023-02-28T01:23:24;0.64;63.70
25945;SHT31;13742;49.306;8.636;2023-02-28T01:24:23;0.64;63.54
25945;SHT31;13742;49.306;8.636;2023-02-28T01:25:23;0.62;63.66
25945;SHT31;13742;49.306;8.636;2023-02-28T01:26:24;0.65;63.67
25945;SHT31;13742;49.306;8.636;2023-02-28T01:27:23;0.64;63.54
25945;SHT31;13742;49.306;8.636;2023-02-28T01:28:23;0.67;63.76
25945;SHT31;13742;49.306;8.636;2023-02-28T01:29:24;0.64;63.83
25945;SHT31;13742;49.306;8.636;2023-02-28T01:30:23;0.65;63.76
25945;SHT31;13742;49.306;8.636;2023-02-28T01:31:24;0.61;63.92
25945;SHT31;13742;49.306;8.636;2023-02-28T01:32:23;0.58;64.05
25945;SHT31;13742;49.306;8.636;2023-02-28T01:33:23;0.60;64.16
25945;SHT31;13742;49.306;8.636;2023-02-28T01:34:23;0.61;64.15
25945;SHT31;13742;49.306;8.636;2023-02-28T01:35:23;0.58;64.17
25945;SHT31;13742;49.306;8.636;2023-02-28T01:36:24;0.61;64.02
25945;SHT31;13742;49.306;8.636;2023-02-28T01:37:24;0.58;64.20
25945;SHT31;13742;49.306;8.636;2023-02-28T01:38:23;0.57;64.27
25945;SHT31;13742;49.306;8.636;2023-02-28T01:39:24;0.57;64.04
25945;SHT31;13742;49.306;8.636;2023-02-28T01:40:23;0.57;64.13
25945;SHT31;13742;49.306;8.636;2023-02-28T01:41:29;0.58;64.02
25945;SHT31;13742;49.306;8.636;2023-02-28T01:42:23;0.55;64.29
25945;SHT31;13742;49.306;8.636;2023-02-28T01:43:27;0.55;64.54
25945;SHT31;13742;49.306;8.636;2023-02-28T01:45:27;0.51;64.79
25945;SHT31;13742;49.306;8.636;2023-02-28T01:46:24;0.54;64.59
25945;SHT31;13742;49.306;8.636;2023-02-28T01:47:27;0.51;64.56
25945;SHT31;13742;49.306;8.636;2023-02-28T01:48:39;0.54;64.46
25945;SHT31;13742;49.306;8.636;2023-02-28T01:49:23;0.54;64.69
25945;SHT31;13742;49.306;8.636;2023-02-28T01:50:28;0.50;64.78
25945;SHT31;13742;49.306;8.636;2023-02-28T01:52:25;0.50;64.77
25945;SHT31;13742;49.306;8.636;2023-02-28T01:53:29;0.51;64.66
25945;SHT31;13742;49.306;8.636;2023-02-28T01:54:26;0.50;64.65
25945;SHT31;13742;49.306;8.636;2023-02-28T01:55:24;0.48;64.83
25945;SHT31;13742;49.306;8.636;2023-02-28T01:56:27;0.50;64.65
25945;SHT31;13742;49.306;8.636;2023-02-28T01:57:28;0.45;64.91
25945;SHT31;13742;49.306;8.636;2023-02-28T01:58:23;0.47;65.02
25945;SHT31;13742;49.306;8.636;2023-02-28T01:59:31;0.42;65.04
25945;SHT31;13742;49.306;8.636;2023-02-28T02:00:26;0.45;65.12
25945;SHT31;13742;49.306;8.636;2023-02-28T02:01:26;0.45;65.17
25945;SHT31;13742;49.306;8.636;2023-02-28T02:02:24;0.45;65.12
25945;SHT31;13742;49.306;8.636;2023-02-28T02:03:24;0.42;65.17
25945;SHT31;13742;49.306;8.636;2023-02-28T02:04:27;0.47;65.05
25945;SHT31;13742;49.306;8.636;2023-02-28T02:05:26;0.45;65.18
25945;SHT31;13742;49.306;8.636;2023-02-28T02:06:30;0.41;65.25
25945;SHT31;13742;49.306;8.636;2023-02-28T02:07:24;0.37;65.46
25945;SHT31;13742;49.306;8.636;2023-02-28T02:08:26;0.40;65.34
25945;SHT31;13742;49.306;8.636;2023-02-28T02:09:23;0.38;65.41
25945;SHT31;13742;49.306;8.636;2023-02-28T02:11:24;0.40;65.36
25945;SHT31;13742;49.306;8.636;2023-02-28T02:14:34;0.37;65.52
25945;SHT31;13742;49.306;8.636;2023-02-28T02:15:34;0.34;65.65
25945;SHT31;13742;49.306;8.636;2023-02-28T02:16:35;0.38;65.57
25945;SHT31;13742;49.306;8.636;2023-02-28T02:17:42;0.37;65.38
25945;SHT31;13742;49.306;8.636;2023-02-28T02:19:41;0.36;65.57
25945;SHT31;13742;49.306;8.636;2023-02-28T02:20:38;0.36;65.57
25945;SHT31;13742;49.306;8.636;2023-02-28T02:26:43;0.29;65.92
25945;SHT31;13742;49.306;8.636;2023-02-28T02:27:39;0.30;65.99
25945;SHT31;13742;49.306;8.636;2023-02-28T02:29:37;0.27;66.08
25945;SHT31;13742;49.306;8.636;2023-02-28T02:34:37;0.27;66.26
25945;SHT31;13742;49.306;8.636;2023-02-28T02:37:29;0.23;66.45
25945;SHT31;13742;49.306;8.636;2023-02-28T02:38:33;0.23;66.41
25945;SHT31;13742;49.306;8.636;2023-02-28T02:39:36;0.23;66.38
25945;SHT31;13742;49.306;8.636;2023-02-28T02:40:30;0.19;66.77
25945;SHT31;13742;49.306;8.636;2023-02-28T02:42:34;0.20;66.58
25945;SHT31;13742;49.306;8.636;2023-02-28T02:43:29;0.21;66.48
25945;SHT31;13742;49.306;8.636;2023-02-28T02:45:27;0.20;66.69
25945;SHT31;13742;49.306;8.636;2023-02-28T02:46:31;0.19;66.88
25945;SHT31;13742;49.306;8.636;2023-02-28T02:47:27;0.17;66.76
25945;SHT31;13742;49.306;8.636;2023-02-28T02:48:29;0.19;66.76
25945;SHT31;13742;49.306;8.636;2023-02-28T02:49:31;0.16;67.02
25945;SHT31;13742;49.306;8.636;2023-02-28T02:50:31;0.14;67.10
25945;SHT31;13742;49.306;8.636;2023-02-28T02:51:24;0.12;67.09
25945;SHT31;13742;49.306;8.636;2023-02-28T02:52:30;0.12;67.21
25945;SHT31;13742;49.306;8.636;2023-02-28T02:53:28;0.14;67.13
25945;SHT31;13742;49.306;8.636;2023-02-28T02:54:27;0.14;66.96
25945;SHT31;13742;49.306;8.636;2023-02-28T02:55:24;0.13;67.01
25945;SHT31;13742;49.306;8.636;2023-02-28T02:56:26;0.12;67.13
25945;SHT31;13742;49.306;8.636;2023-02-28T02:57:28;0.14;66.97
25945;SHT31;13742;49.306;8.636;2023-02-28T02:58:27;0.13;67.05
25945;SHT31;13742;49.306;8.636;2023-02-28T02:59:25;0.10;67.02
25945;SHT31;13742;49.306;8.636;2023-02-28T03:00:29;0.12;67.15
25945;SHT31;13742;49.306;8.636;2023-02-28T03:01:30;0.10;67.00
25945;SHT31;13742;49.306;8.636;2023-02-28T03:02:23;0.10;67.21
25945;SHT31;13742;49.306;8.636;2023-02-28T03:03:30;0.13;67.14
25945;SHT31;13742;49.306;8.636;2023-02-28T03:04:25;0.10;67.31
25945;SHT31;13742;49.306;8.636;2023-02-28T03:05:28;0.09;67.21
25945;SHT31;13742;49.306;8.636;2023-02-28T03:06:24;0.08;67.07
25945;SHT31;13742;49.306;8.636;2023-02-28T03:07:25;0.10;67.27
25945;SHT31;13742;49.306;8.636;2023-02-28T03:08:23;0.10;67.06
25945;SHT31;13742;49.306;8.636;2023-02-28T03:09:25;0.08;67.28
25945;SHT31;13742;49.306;8.636;2023-02-28T03:10:33;0.08;67.41
25945;SHT31;13742;49.306;8.636;2023-02-28T03:11:23;0.04;67.28
25945;SHT31;13742;49.306;8.636;2023-02-28T03:14:32;0.03;67.51
25945;SHT31;13742;49.306;8.636;2023-02-28T03:15:34;0.04;67.48
25945;SHT31;13742;49.306;8.636;2023-02-28T03:16:32;0.03;67.37
25945;SHT31;13742;49.306;8.636;2023-02-28T03:18:38;0.03;67.37
25945;SHT31;13742;49.306;8.636;2023-02-28T03:19:32;0.03;67.36
25945;SHT31;13742;49.306;8.636;2023-02-28T03:20:40;0.03;67.40
25945;SHT31;13742;49.306;8.636;2023-02-28T03:21:34;0.04;67.30
25945;SHT31;13742;49.306;8.636;2023-02-28T03:22:34;0.04;67.19
25945;SHT31;13742;49.306;8.636;2023-02-28T03:23:32;-0.01;67.54
25945;SHT31;13742;49.306;8.636;2023-02-28T03:24:43;0.00;67.53
25945;SHT31;13742;49.306;8.636;2023-02-28T03:25:30;-0.03;67.50
25945;SHT31;13742;49.306;8.636;2023-02-28T03:26:26;-0.04;67.74
25945;SHT31;13742;49.306;8.636;2023-02-28T03:28:20;-0.04;67.70
25945;SHT31;13742;49.306;8.636;2023-02-28T03:28:34;-0.03;67.67
25945;SHT31;13742;49.306;8.636;2023-02-28T03:29:36;-0.04;67.68
25945;SHT31;13742;49.306;8.636;2023-02-28T03:31:39;-0.03;67.88
25945;SHT31;13742;49.306;8.636;2023-02-28T03:32:52;-0.06;67.81
25945;SHT31;13742;49.306;8.636;2023-02-28T03:33:28;-0.04;67.90
25945;SHT31;13742;49.306;8.636;2023-02-28T03:34:34;-0.08;67.79
25945;SHT31;13742;49.306;8.636;2023-02-28T03:35:27;-0.06;67.89
25945;SHT31;13742;49.306;8.636;2023-02-28T03:36:28;-0.10;67.79
25945;SHT31;13742;49.306;8.636;2023-02-28T03:37:25;-0.08;67.87
25945;SHT31;13742;49.306;8.636;2023-02-28T03:38:32;-0.10;67.85
25945;SHT31;13742;49.306;8.636;2023-02-28T03:39:28;-0.11;67.94
25945;SHT31;13742;49.306;8.636;2023-02-28T03:40:28;-0.13;67.88
25945;SHT31;13742;49.306;8.636;2023-02-28T03:41:29;-0.14;67.89
25945;SHT31;13742;49.306;8.636;2023-02-28T03:42:27;-0.11;67.92
25945;SHT31;13742;49.306;8.636;2023-02-28T03:43:29;-0.10;67.83
25945;SHT31;13742;49.306;8.636;2023-02-28T03:44:32;-0.13;68.13
25945;SHT31;13742;49.306;8.636;2023-02-28T03:45:26;-0.15;68.03
25945;SHT31;13742;49.306;8.636;2023-02-28T03:46:25;-0.14;67.90
25945;SHT31;13742;49.306;8.636;2023-02-28T03:47:29;-0.14;68.16
25945;SHT31;13742;49.306;8.636;2023-02-28T03:48:30;-0.15;68.22
25945;SHT31;13742;49.306;8.636;2023-02-28T03:49:28;-0.20;68.43
25945;SHT31;13742;49.306;8.636;2023-02-28T03:50:27;-0.18;68.21
25945;SHT31;13742;49.306;8.636;2023-02-28T03:51:26;-0.20;68.11
25945;SHT31;13742;49.306;8.636;2023-02-28T03:52:27;-0.20;68.26
25945;SHT31;13742;49.306;8.636;2023-02-28T03:53:29;-0.20;68.38
25945;SHT31;13742;49.306;8.636;2023-02-28T03:54:28;-0.20;68.46
25945;SHT31;13742;49.306;8.636;2023-02-28T03:55:23;-0.20;68.54
25945;SHT31;13742;49.306;8.636;2023-02-28T03:56:31;-0.20;68.45
25945;SHT31;13742;49.306;8.636;2023-02-28T03:58:35;-0.24;68.60
25945;SHT31;13742;49.306;8.636;2023-02-28T03:59:28;-0.24;68.77
25945;SHT31;13742;49.306;8.636;2023-02-28T04:00:30;-0.22;68.59
25945;SHT31;13742;49.306;8.636;2023-02-28T04:01:42;-0.22;68.69
25945;SHT31;13742;49.306;8.636;2023-02-28T04:02:23;-0.22;68.57
25945;SHT31;13742;49.306;8.636;2023-02-28T04:03:23;-0.22;68.65
25945;SHT31;13742;49.306;8.636;2023-02-28T04:04:23;-0.22;68.50
25945;SHT31;13742;49.306;8.636;2023-02-28T04:05:23;-0.20;68.92
25945;SHT31;13742;49.306;8.636;2023-02-28T04:06:24;-0.20;68.48
25945;SHT31;13742;49.306;8.636;2023-02-28T04:07:23;-0.20;68.46
25945;SHT31;13742;49.306;8.636;2023-02-28T04:08:23;-0.22;68.29
25945;SHT31;13742;49.306;8.636;2023-02-28T04:09:23;-0.18;68.35
25945;SHT31;13742;49.306;8.636;2023-02-28T04:10:23;-0.21;68.61
25945;SHT31;13742;49.306;8.636;2023-02-28T04:12:23;-0.20;68.67
25945;SHT31;13742;49.306;8.636;2023-02-28T04:13:23;-0.24;68.78
25945;SHT31;13742;49.306;8.636;2023-02-28T04:14:23;-0.24;68.57
25945;SHT31;13742;49.306;8.636;2023-02-28T04:15:24;-0.27;68.83
25945;SHT31;13742;49.306;8.636;2023-02-28T04:16:23;-0.25;69.08
25945;SHT31;13742;49.306;8.636;2023-02-28T04:17:23;-0.28;69.07
25945;SHT31;13742;49.306;8.636;2023-02-28T04:18:23;-0.27;69.01
25945;SHT31;13742;49.306;8.636;2023-02-28T04:19:23;-0.28;69.09
25945;SHT31;13742;49.306;8.636;2023-02-28T04:20:23;-0.29;68.92
25945;SHT31;13742;49.306;8.636;2023-02-28T04:21:23;-0.28;69.26
25945;SHT31;13742;49.306;8.636;2023-02-28T04:22:26;-0.27;68.95
25945;SHT31;13742;49.306;8.636;2023-02-28T04:23:23;-0.29;69.23
25945;SHT31;13742;49.306;8.636;2023-02-28T04:24:25;-0.28;69.36
25945;SHT31;13742;49.306;8.636;2023-02-28T04:25:23;-0.28;69.25
25945;SHT31;13742;49.306;8.636;2023-02-28T04:26:23;-0.28;69.12
25945;SHT31;13742;49.306;8.636;2023-02-28T04:27:23;-0.28;69.16
25945;SHT31;13742;49.306;8.636;2023-02-28T04:28:23;-0.28;69.08
25945;SHT31;13742;49.306;8.636;2023-02-28T04:29:29;-0.27;68.99
25945;SHT31;13742;49.306;8.636;2023-02-28T04:30:23;-0.27;68.98
25945;SHT31;13742;49.306;8.636;2023-02-28T04:31:23;-0.27;69.07
25945;SHT31;13742;49.306;8.636;2023-02-28T04:32:23;-0.29;69.29
25945;SHT31;13742;49.306;8.636;2023-02-28T04:33:23;-0.28;68.97
25945;SHT31;13742;49.306;8.636;2023-02-28T04:34:24;-0.25;69.06
25945;SHT31;13742;49.306;8.636;2023-02-28T04:35:23;-0.25;69.45
25945;SHT31;13742;49.306;8.636;2023-02-28T04:36:23;-0.25;69.03
25945;SHT31;13742;49.306;8.636;2023-02-28T04:37:28;-0.24;69.10
25945;SHT31;13742;49.306;8.636;2023-02-28T04:38:23;-0.24;69.07
25945;SHT31;13742;49.306;8.636;2023-02-28T04:39:24;-0.21;69.14
25945;SHT31;13742;49.306;8.636;2023-02-28T04:40:23;-0.22;68.86
25945;SHT31;13742;49.306;8.636;2023-02-28T04:41:23;-0.22;68.99
25945;SHT31;13742;49.306;8.636;2023-02-28T04:42:23;-0.24;68.90
25945;SHT31;13742;49.306;8.636;2023-02-28T04:43:23;-0.21;68.60
25945;SHT31;13742;49.306;8.636;2023-02-28T04:44:23;-0.24;69.03
25945;SHT31;13742;49.306;8.636;2023-02-28T04:45:23;-0.25;68.99
25945;SHT31;13742;49.306;8.636;2023-02-28T04:46:23;-0.24;69.11
25945;SHT31;13742;49.306;8.636;2023-02-28T04:47:23;-0.22;68.96
25945;SHT31;13742;49.306;8.636;2023-02-28T04:48:35;-0.20;68.51
25945;SHT31;13742;49.306;8.636;2023-02-28T04:49:23;-0.21;69.00
25945;SHT31;13742;49.306;8.636;2023-02-28T04:50:23;-0.20;69.07
25945;SHT31;13742;49.306;8.636;2023-02-28T04:51:23;-0.18;69.05
25945;SHT31;13742;49.306;8.636;2023-02-28T04:52:23;-0.21;69.02
25945;SHT31;13742;49.306;8.636;2023-02-28T04:53:24;-0.21;68.78
25945;SHT31;13742;49.306;8.636;2023-02-28T04:54:23;-0.17;69.03
25945;SHT31;13742;49.306;8.636;2023-02-28T04:55:23;-0.17;68.88
25945;SHT31;13742;49.306;8.636;2023-02-28T04:56:23;-0.15;68.89
25945;SHT31;13742;49.306;8.636;2023-02-28T04:57:23;-0.17;68.93
25945;SHT31;13742;49.306;8.636;2023-02-28T04:58:24;-0.20;69.05
25945;SHT31;13742;49.306;8.636;2023-02-28T04:59:23;-0.17;68.80
25945;SHT31;13742;49.306;8.636;2023-02-28T05:00:24;-0.17;68.68
25945;SHT31;13742;49.306;8.636;2023-02-28T05:01:31;-0.14;68.78
25945;SHT31;13742;49.306;8.636;2023-02-28T05:02:23;-0.17;68.75
25945;SHT31;13742;49.306;8.636;2023-02-28T05:03:23;-0.17;68.78
25945;SHT31;13742;49.306;8.636;2023-02-28T05:04:23;-0.17;69.01
25945;SHT31;13742;49.306;8.636;2023-02-28T05:05:23;-0.14;68.99
25945;SHT31;13742;49.306;8.636;2023-02-28T05:06:27;-0.17;68.91
25945;SHT31;13742;49.306;8.636;2023-02-28T05:07:23;-0.17;68.96
25945;SHT31;13742;49.306;8.636;2023-02-28T05:08:23;-0.14;68.84
25945;SHT31;13742;49.306;8.636;2023-02-28T05:09:23;-0.13;68.78
25945;SHT31;13742;49.306;8.636;2023-02-28T05:10:23;-0.13;68.67
25945;SHT31;13742;49.306;8.636;2023-02-28T05:11:29;-0.11;68.88
25945;SHT31;13742;49.306;8.636;2023-02-28T05:12:23;-0.10;68.51
25945;SHT31;13742;49.306;8.636;2023-02-28T05:13:23;-0.13;68.59
25945;SHT31;13742;49.306;8.636;2023-02-28T05:14:23;-0.10;68.86
25945;SHT31;13742;49.306;8.636;2023-02-28T05:15:23;-0.10;68.56
25945;SHT31;13742;49.306;8.636;2023-02-28T05:16:23;-0.07;68.65
25945;SHT31;13742;49.306;8.636;2023-02-28T05:17:23;-0.08;68.45
25945;SHT31;13742;49.306;8.636;2023-02-28T05:18:23;-0.08;68.54
25945;SHT31;13742;49.306;8.636;2023-02-28T05:19:23;-0.06;68.58
25945;SHT31;13742;49.306;8.636;2023-02-28T05:20:23;-0.08;68.64
25945;SHT31;13742;49.306;8.636;2023-02-28T05:21:30;-0.07;68.67
25945;SHT31;13742;49.306;8.636;2023-02-28T05:22:23;-0.07;68.55
25945;SHT31;13742;49.306;8.636;2023-02-28T05:23:23;-0.06;68.51
25945;SHT31;13742;49.306;8.636;2023-02-28T05:24:23;-0.07;68.59
25945;SHT31;13742;49.306;8.636;2023-02-28T05:25:23;-0.07;68.63
25945;SHT31;13742;49.306;8.636;2023-02-28T05:26:24;-0.07;68.46
25945;SHT31;13742;49.306;8.636;2023-02-28T05:27:23;-0.06;68.39
25945;SHT31;13742;49.306;8.636;2023-02-28T05:28:23;-0.06;68.36
25945;SHT31;13742;49.306;8.636;2023-02-28T05:29:23;-0.01;68.29
25945;SHT31;13742;49.306;8.636;2023-02-28T05:30:23;-0.03;68.42
25945;SHT31;13742;49.306;8.636;2023-02-28T05:31:23;-0.04;68.43
25945;SHT31;13742;49.306;8.636;2023-02-28T05:32:23;-0.03;68.20
25945;SHT31;13742;49.306;8.636;2023-02-28T05:33:23;-0.04;68.42
25945;SHT31;13742;49.306;8.636;2023-02-28T05:34:23;-0.01;68.20
25945;SHT31;13742;49.306;8.636;2023-02-28T05:35:24;-0.01;68.35
25945;SHT31;13742;49.306;8.636;2023-02-28T05:36:23;0.00;68.30
25945;SHT31;13742;49.306;8.636;2023-02-28T05:37:23;0.02;68.19
25945;SHT31;13742;49.306;8.636;2023-02-28T05:38:23;0.02;68.16
25945;SHT31;13742;49.306;8.636;2023-02-28T05:39:23;0.00;68.30
25945;SHT31;13742;49.306;8.636;2023-02-28T05:40:23;0.02;68.18
25945;SHT31;13742;49.306;8.636;2023-02-28T05:41:23;0.02;68.28
25945;SHT31;13742;49.306;8.636;2023-02-28T05:42:23;0.02;68.24
25945;SHT31;13742;49.306;8.636;2023-02-28T05:43:23;0.02;68.17
25945;SHT31;13742;49.306;8.636;2023-02-28T05:44:23;0.00;68.09
25945;SHT31;13742;49.306;8.636;2023-02-28T05:45:23;0.00;68.12
25945;SHT31;13742;49.306;8.636;2023-02-28T05:46:23;0.03;68.13
25945;SHT31;13742;49.306;8.636;2023-02-28T05:47:23;0.00;68.18
25945;SHT31;13742;49.306;8.636;2023-02-28T05:48:23;0.02;68.10
25945;SHT31;13742;49.306;8.636;2023-02-28T05:49:23;0.04;68.12
25945;SHT31;13742;49.306;8.636;2023-02-28T05:50:23;0.04;68.17
25945;SHT31;13742;49.306;8.636;2023-02-28T05:51:23;0.04;67.92
25945;SHT31;13742;49.306;8.636;2023-02-28T05:52:23;0.04;67.87
25945;SHT31;13742;49.306;8.636;2023-02-28T05:53:23;0.06;67.98
25945;SHT31;13742;49.306;8.636;2023-02-28T05:54:23;0.08;68.00
25945;SHT31;13742;49.306;8.636;2023-02-28T05:55:23;0.04;67.87
25945;SHT31;13742;49.306;8.636;2023-02-28T05:56:23;0.04;67.97
25945;SHT31;13742;49.306;8.636;2023-02-28T05:57:24;0.06;67.93
25945;SHT31;13742;49.306;8.636;2023-02-28T05:58:24;0.12;68.20
25945;SHT31;13742;49.306;8.636;2023-02-28T05:59:23;0.09;68.00
25945;SHT31;13742;49.306;8.636;2023-02-28T06:00:23;0.08;67.95
25945;SHT31;13742;49.306;8.636;2023-02-28T06:01:35;0.09;67.83
25945;SHT31;13742;49.306;8.636;2023-02-28T06:02:23;0.12;67.94
25945;SHT31;13742;49.306;8.636;2023-02-28T06:03:23;0.12;67.80
25945;SHT31;13742;49.306;8.636;2023-02-28T06:04:23;0.10;67.79
25945;SHT31;13742;49.306;8.636;2023-02-28T06:05:23;0.13;67.78
25945;SHT31;13742;49.306;8.636;2023-02-28T06:06:23;0.12;67.84
25945;SHT31;13742;49.306;8.636;2023-02-28T06:07:23;0.08;68.00
25945;SHT31;13742;49.306;8.636;2023-02-28T06:08:23;0.10;68.03
25945;SHT31;13742;49.306;8.636;2023-02-28T06:09:23;0.12;67.97
25945;SHT31;13742;49.306;8.636;2023-02-28T06:10:23;0.10;67.95
25945;SHT31;13742;49.306;8.636;2023-02-28T06:11:27;0.09;68.00
25945;SHT31;13742;49.306;8.636;2023-02-28T06:12:23;0.06;68.09
25945;SHT31;13742;49.306;8.636;2023-02-28T06:13:24;0.10;67.99
25945;SHT31;13742;49.306;8.636;2023-02-28T06:14:23;0.10;67.85
25945;SHT31;13742;49.306;8.636;2023-02-28T06:15:23;0.09;68.08
25945;SHT31;13742;49.306;8.636;2023-02-28T06:16:24;0.08;67.92
25945;SHT31;13742;49.306;8.636;2023-02-28T06:17:23;0.06;68.22
25945;SHT31;13742;49.306;8.636;2023-02-28T06:18:23;0.08;68.06
25945;SHT31;13742;49.306;8.636;2023-02-28T06:19:26;0.08;68.06
25945;SHT31;13742;49.306;8.636;2023-02-28T06:20:25;0.08;68.01
25945;SHT31;13742;49.306;8.636;2023-02-28T06:21:23;0.04;68.09
25945;SHT31;13742;49.306;8.636;2023-02-28T06:22:23;0.04;68.08
25945;SHT31;13742;49.306;8.636;2023-02-28T06:23:23;0.09;68.22
25945;SHT31;13742;49.306;8.636;2023-02-28T06:24:24;0.09;67.98
25945;SHT31;13742;49.306;8.636;2023-02-28T06:25:23;0.10;67.87
25945;SHT31;13742;49.306;8.636;2023-02-28T06:26:25;0.10;67.93
25945;SHT31;13742;49.306;8.636;2023-02-28T06:27:23;0.10;68.47
25945;SHT31;13742;49.306;8.636;2023-02-28T06:28:25;0.09;68.22
25945;SHT31;13742;49.306;8.636;2023-02-28T06:29:23;0.06;68.38
25945;SHT31;13742;49.306;8.636;2023-02-28T06:30:25;0.08;68.13
25945;SHT31;13742;49.306;8.636;2023-02-28T06:31:26;0.08;68.19
25945;SHT31;13742;49.306;8.636;2023-02-28T06:32:23;0.06;68.15
25945;SHT31;13742;49.306;8.636;2023-02-28T06:33:23;0.06;68.22
25945;SHT31;13742;49.306;8.636;2023-02-28T06:34:23;0.06;67.95
25945;SHT31;13742;49.306;8.636;2023-02-28T06:35:23;0.06;68.04
25945;SHT31;13742;49.306;8.636;2023-02-28T06:36:23;0.08;68.20
25945;SHT31;13742;49.306;8.636;2023-02-28T06:37:26;0.04;68.13
25945;SHT31;13742;49.306;8.636;2023-02-28T06:38:23;0.04;68.18
25945;SHT31;13742;49.306;8.636;2023-02-28T06:39:23;0.06;68.12
25945;SHT31;13742;49.306;8.636;2023-02-28T06:40:23;0.09;68.19
25945;SHT31;13742;49.306;8.636;2023-02-28T06:41:26;0.10;68.02
25945;SHT31;13742;49.306;8.636;2023-02-28T06:42:29;0.09;68.21
25945;SHT31;13742;49.306;8.636;2023-02-28T06:43:25;0.12;68.16
25945;SHT31;13742;49.306;8.636;2023-02-28T06:44:24;0.10;68.15
25945;SHT31;13742;49.306;8.636;2023-02-28T06:45:23;0.13;68.19
25945;SHT31;13742;49.306;8.636;2023-02-28T06:46:23;0.12;68.00
25945;SHT31;13742;49.306;8.636;2023-02-28T06:47:23;0.12;67.96
25945;SHT31;13742;49.306;8.636;2023-02-28T06:48:23;0.09;68.07